American Islander — WDC5089 — position and weather

sailwx.info

Track history (hours):
 
Tides and Currents Weather Stations Pressure Air Temp Water Temp Dewpoint Dewpoint Depression Visibility Wind Speed Wind Dir Waves Ship Positions

American Islander

Owner: AMERICAN WORKBOATS, INC., HONOLULU, HI. More information available from US FCC via Universal Licensing System and Coast Guard Vessel Documentation Center.

Last reported at 2017-Jun-08 19:12 UTC. Time now 2017-Jun-26 15:26 UTC.
Position N 33°44' W 118°16'.
Warning: this ship's position is 17 days out of date.

Length 31 m; draft 3 m.

Type: Ship. MMSI: 367035570.

Date/timePositionNaut miles runAvg speedWind from/ knotsBaromVisibWave heightAir tempDewpointWater temp
2017-Jun-08 19:12N 33°44' W 118°16'0 0.0
2017-Jun-08 19:00N 33°44' W 118°16'7 2.6
2017-Jun-08 16:16N 33°44' W 118°07'1 2.6
2017-Jun-08 15:56N 33°44' W 118°08'5 3.6
2017-Jun-08 14:41N 33°43' W 118°13'2 4.3
2017-Jun-08 14:20N 33°43' W 118°15'1 0.1
2017-Jun-07 17:51N 33°44' W 118°16'0 0.0
2017-Jun-07 01:36N 33°44' W 118°16'0 0.1
2017-Jun-07 01:30N 33°44' W 118°16'1 1.8
2017-Jun-07 00:48N 33°43' W 118°15'1 2.5
2017-Jun-07 00:28N 33°42' W 118°15'3 3.7
2017-Jun-06 23:36N 33°41' W 118°19'1 3.6
2017-Jun-06 23:20N 33°41' W 118°20'1 1.6
2017-Jun-06 23:00N 33°41' W 118°21'0 0.6
2017-Jun-06 22:30N 33°42' W 118°21'1 1.4
2017-Jun-06 22:00N 33°42' W 118°22'1 1.2
2017-Jun-06 21:27N 33°42' W 118°23'0 0.5
2017-Jun-06 20:54N 33°42' W 118°23'0 0.2
2017-Jun-06 20:28N 33°42' W 118°23'0 0.1
2017-Jun-06 19:47N 33°42' W 118°23'1 1.8
2017-Jun-06 19:22N 33°42' W 118°22'1 1.7
2017-Jun-06 19:00N 33°41' W 118°22'0 0.3
2017-Jun-06 18:18N 33°42' W 118°22'1 1.2
2017-Jun-06 17:29N 33°42' W 118°21'2 3.8
2017-Jun-06 16:58N 33°42' W 118°19'2 3.8
2017-Jun-06 16:24N 33°42' W 118°16'2 0.2
2017-Jun-06 07:33N 33°44' W 118°16'0 0.0
2017-Jun-06 07:28N 33°44' W 118°16'0 0.0
2017-Jun-06 06:59N 33°44' W 118°16'0 0.0
2017-Jun-06 00:20N 33°44' W 118°16'0 0.0
2017-Jun-05 23:09N 33°44' W 118°16'0 0.0
2017-Jun-05 23:00N 33°44' W 118°16'0 0.0
2017-Jun-05 22:11N 33°44' W 118°16'0 0.0
2017-Jun-05 22:00N 33°44' W 118°16'0 0.0
2017-Jun-05 19:58N 33°44' W 118°16'0 0.0
2017-Jun-05 19:30N 33°44' W 118°16'0 0.0
2017-Jun-05 18:59N 33°44' W 118°16'0 0.0
2017-Jun-05 18:30N 33°44' W 118°16'0 0.0
2017-Jun-05 17:51N 33°44' W 118°16'0 0.0
2017-Jun-05 17:20N 33°44' W 118°16'0 0.0
2017-Jun-05 16:23N 33°44' W 118°16'0 0.0
2017-Jun-05 15:38N 33°44' W 118°16'0 0.0
2017-Jun-05 15:30N 33°44' W 118°16'0 0.0
2017-Jun-05 11:18N 33°44' W 118°16'0 0.0
2017-Jun-05 10:56N 33°44' W 118°16'0 0.0
2017-Jun-05 10:30N 33°44' W 118°16'0 0.0
2017-Jun-05 09:54N 33°44' W 118°16'0 0.0
2017-Jun-05 09:30N 33°44' W 118°16'0 0.0
2017-Jun-05 08:49N 33°44' W 118°16'0 0.0
2017-Jun-05 07:57N 33°44' W 118°16'0 0.0
2017-Jun-05 07:30N 33°44' W 118°16'0 0.0
2017-Jun-05 07:00N 33°44' W 118°16'0 0.0
2017-Jun-05 06:30N 33°44' W 118°16'0 0.0
2017-Jun-05 06:00N 33°44' W 118°16'0 0.1
2017-Jun-05 05:30N 33°44' W 118°16'0 0.1
2017-Jun-05 04:36N 33°44' W 118°16'0 0.0
2017-Jun-05 04:25N 33°44' W 118°16'0 0.0
2017-Jun-05 04:00N 33°44' W 118°16'0 0.0
2017-Jun-05 03:30N 33°44' W 118°16'0 0.0
2017-Jun-05 03:00N 33°44' W 118°16'0 0.0
2017-Jun-05 02:30N 33°44' W 118°16'0 0.6
2017-Jun-05 02:00N 33°44' W 118°16'1 2.5
2017-Jun-05 01:30N 33°43' W 118°15'2 2.6
2017-Jun-05 00:51N 33°42' W 118°17'1 4.0
2017-Jun-05 00:30N 33°41' W 118°18'2 3.9
2017-Jun-05 00:00N 33°41' W 118°21'1 2.4
2017-Jun-04 23:30N 33°41' W 118°22'0 0.7
2017-Jun-04 23:01N 33°42' W 118°23'1 1.7
2017-Jun-04 22:31N 33°41' W 118°23'1 1.3
2017-Jun-04 22:00N 33°42' W 118°23'0 0.5
2017-Jun-04 21:29N 33°42' W 118°23'0 0.6
2017-Jun-04 21:00N 33°42' W 118°23'0 0.7
2017-Jun-04 20:31N 33°42' W 118°23'0 0.5
2017-Jun-04 20:00N 33°42' W 118°23'0 0.3
2017-Jun-04 19:30N 33°42' W 118°23'0 0.4
2017-Jun-04 19:00N 33°42' W 118°23'0 0.2
2017-Jun-04 18:30N 33°42' W 118°23'0 0.4
2017-Jun-04 18:00N 33°42' W 118°23'1 1.1
2017-Jun-04 17:30N 33°42' W 118°24'1 1.5
2017-Jun-04 17:00N 33°42' W 118°23'0 0.4
2017-Jun-04 16:30N 33°42' W 118°23'0 0.6
2017-Jun-04 16:00N 33°42' W 118°23'1 1.6
2017-Jun-04 15:29N 33°42' W 118°24'0 0.5
2017-Jun-04 14:59N 33°42' W 118°24'2 1.6
2017-Jun-04 14:00N 33°42' W 118°22'1 1.3
2017-Jun-04 13:30N 33°42' W 118°23'1 2.0
2017-Jun-04 13:00N 33°42' W 118°21'0 0.9
2017-Jun-04 12:28N 33°42' W 118°22'1 2.4
2017-Jun-04 12:00N 33°41' W 118°23'1 1.7
2017-Jun-04 11:30N 33°42' W 118°24'1 2.2
2017-Jun-04 11:00N 33°42' W 118°23'1 2.1
2017-Jun-04 10:26N 33°42' W 118°21'0 0.9
2017-Jun-04 10:00N 33°42' W 118°21'1 2.5
2017-Jun-04 09:30N 33°41' W 118°22'1 2.3
2017-Jun-04 09:00N 33°41' W 118°24'1 1.5
2017-Jun-04 08:30N 33°42' W 118°23'1 2.2
2017-Jun-04 07:59N 33°42' W 118°22'1 2.1
2017-Jun-04 07:30N 33°42' W 118°21'1 1.9
2017-Jun-04 07:00N 33°42' W 118°22'1 2.5
2017-Jun-04 06:30N 33°41' W 118°23'1 1.0
2017-Jun-04 05:51N 33°42' W 118°24'1 2.2
2017-Jun-04 05:30N 33°42' W 118°23'1 1.9
2017-Jun-04 04:59N 33°42' W 118°22'1 2.1
2017-Jun-04 04:30N 33°42' W 118°21'1 1.9
2017-Jun-04 04:00N 33°42' W 118°21'1 2.6
2017-Jun-04 03:30N 33°41' W 118°23'1 1.4
2017-Jun-04 03:00N 33°42' W 118°24'1 1.9
2017-Jun-04 02:30N 33°42' W 118°23'0 0.9
2017-Jun-04 02:00N 33°42' W 118°22'1 1.1
2017-Jun-04 01:29N 33°42' W 118°23'0 0.5
2017-Jun-04 01:01N 33°42' W 118°23'0 0.4
2017-Jun-04 00:30N 33°42' W 118°23'0 0.1
2017-Jun-04 00:00N 33°42' W 118°23'0 0.7
2017-Jun-03 23:30N 33°41' W 118°23'1 1.1
2017-Jun-03 23:00N 33°41' W 118°24'0 0.9
2017-Jun-03 22:30N 33°42' W 118°23'0 0.9
2017-Jun-03 21:57N 33°42' W 118°23'0 0.6
2017-Jun-03 21:30N 33°42' W 118°23'0 0.3
2017-Jun-03 21:00N 33°42' W 118°23'0 0.6
2017-Jun-03 20:30N 33°42' W 118°22'0 0.7
2017-Jun-03 20:00N 33°42' W 118°22'0 0.5
2017-Jun-03 19:30N 33°42' W 118°22'0 0.9
2017-Jun-03 19:00N 33°42' W 118°22'1 1.7
2017-Jun-03 18:30N 33°41' W 118°23'1 1.1
2017-Jun-03 17:54N 33°42' W 118°23'0 1.1
2017-Jun-03 17:30N 33°42' W 118°23'0 0.4
2017-Jun-03 17:00N 33°42' W 118°23'2 3.1
2017-Jun-03 16:27N 33°42' W 118°21'2 3.2
2017-Jun-03 15:49N 33°42' W 118°19'1 3.4
2017-Jun-03 15:29N 33°42' W 118°17'2 3.3
2017-Jun-03 14:54N 33°42' W 118°15'1 3.2
2017-Jun-03 14:26N 33°44' W 118°16'0 0.1
2017-Jun-03 11:14N 33°44' W 118°16'0 0.0
2017-Jun-03 04:55N 33°44' W 118°16'0 0.0
2017-Jun-03 04:30N 33°44' W 118°16'0 0.0
2017-Jun-03 02:52N 33°44' W 118°16'0 0.0
2017-Jun-03 02:24N 33°44' W 118°16'0 0.0
2017-Jun-03 00:15N 33°44' W 118°16'0 0.0
2017-Jun-02 23:38N 33°44' W 118°16'0 0.0
2017-Jun-02 23:27N 33°44' W 118°16'0 0.0
2017-Jun-02 22:59N 33°44' W 118°16'0 0.0
2017-Jun-02 22:27N 33°44' W 118°16'0 0.0
2017-Jun-02 14:37N 33°44' W 118°16'0 0.0
2017-Jun-02 06:40N 33°44' W 118°16'0 0.0
2017-Jun-02 06:29N 33°44' W 118°16'0 0.0
2017-Jun-02 05:59N 33°44' W 118°16'0 0.0
2017-Jun-02 05:08N 33°44' W 118°16'0 0.0
2017-Jun-02 05:00N 33°44' W 118°16'0 0.0
2017-Jun-02 04:30N 33°44' W 118°16'0 0.0
2017-Jun-02 04:00N 33°44' W 118°16'0 0.0
2017-Jun-02 00:37N 33°44' W 118°16'0 0.1
2017-Jun-02 00:31N 33°44' W 118°16'0 0.6
2017-Jun-02 00:00N 33°44' W 118°16'1 2.5
2017-Jun-01 23:30N 33°43' W 118°15'2 3.3
2017-Jun-01 23:01N 33°42' W 118°17'2 4.4
2017-Jun-01 22:30N 33°42' W 118°19'2 4.2
2017-Jun-01 21:58N 33°43' W 118°22'1 2.4
2017-Jun-01 21:29N 33°43' W 118°23'1 1.4
2017-Jun-01 21:00N 33°43' W 118°23'1 0.8
2017-Jun-01 19:39N 33°43' W 118°21'0 0.2
2017-Jun-01 18:22N 33°43' W 118°21'2 2.7
2017-Jun-01 17:40N 33°43' W 118°23'1 0.9
2017-Jun-01 17:02N 33°42' W 118°23'0 1.3
2017-Jun-01 16:57N 33°42' W 118°23'1 0.0
2017-May-31 22:56N 33°42' W 118°22'2 0.8
2017-May-31 20:53N 33°42' W 118°20'1 2.7
2017-May-31 20:23N 33°42' W 118°22'0 0.5
2017-May-31 19:44N 33°42' W 118°21'0 1.6
2017-May-31 19:30N 33°42' W 118°21'1 2.3
2017-May-31 18:56N 33°42' W 118°22'0 0.7
2017-May-31 18:30N 33°42' W 118°23'0 0.3
2017-May-31 17:55N 33°42' W 118°23'0 0.4
2017-May-31 17:30N 33°42' W 118°23'2 3.3
2017-May-31 16:50N 33°42' W 118°20'2 3.5
2017-May-31 16:19N 33°42' W 118°18'1 3.5
2017-May-31 15:58N 33°42' W 118°17'3 3.7
2017-May-31 15:15N 33°43' W 118°14'6 2.6
2017-May-31 12:55N 33°45' W 118°07'0 0.0
2017-May-31 06:46N 33°45' W 118°07'0 0.0
2017-May-31 04:41N 33°45' W 118°07'0 0.0
2017-May-31 01:36N 33°45' W 118°07'0 0.0
2017-May-31 01:17N 33°45' W 118°07'0 0.0
2017-May-30 22:48N 33°45' W 118°07'0 0.0
2017-May-30 22:19N 33°45' W 118°07'0 0.0
2017-May-30 21:58N 33°45' W 118°07'0 0.0
2017-May-30 21:30N 33°45' W 118°07'0 0.0
2017-May-30 20:29N 33°45' W 118°07'0 0.0
2017-May-30 19:52N 33°45' W 118°07'0 0.0
2017-May-30 18:48N 33°45' W 118°07'0 0.0
2017-May-30 18:23N 33°45' W 118°07'1 1.8
2017-May-30 18:01N 33°45' W 118°07'4 5.0
2017-May-30 17:09N 33°44' W 118°12'1 5.3
2017-May-30 16:53N 33°43' W 118°14'2 0.2
2017-May-30 06:55N 33°44' W 118°16'0 0.0
2017-May-30 06:24N 33°44' W 118°16'0 0.0
2017-May-30 05:22N 33°44' W 118°16'0 0.0
2017-May-30 04:21N 33°44' W 118°16'0 0.0
2017-May-30 03:00N 33°44' W 118°16'0 0.0
2017-May-30 02:30N 33°44' W 118°16'0 0.0
2017-May-30 01:46N 33°44' W 118°16'0 0.0
2017-May-30 00:44N 33°44' W 118°16'0 0.0
2017-May-30 00:22N 33°44' W 118°16'0 0.0
2017-May-29 23:59N 33°44' W 118°16'0 0.0
2017-May-29 23:29N 33°44' W 118°16'0 0.0
2017-May-29 22:58N 33°44' W 118°16'0 0.0
2017-May-29 22:24N 33°44' W 118°16'0 0.0
2017-May-29 22:00N 33°44' W 118°16'0 0.0
2017-May-29 21:29N 33°44' W 118°16'0 0.0
2017-May-29 21:00N 33°44' W 118°16'0 0.0
2017-May-29 20:27N 33°44' W 118°16'0 0.0
2017-May-29 19:50N 33°44' W 118°16'0 0.0
2017-May-29 19:23N 33°44' W 118°16'  
Track history (hours):
 
Tides and Currents Weather Stations Pressure Air Temp Water Temp Dewpoint Dewpoint Depression Visibility Wind Speed Wind Dir Waves Ship Positions

American Islander

Owner: AMERICAN WORKBOATS, INC., HONOLULU, HI. More information available from US FCC via Universal Licensing System and Coast Guard Vessel Documentation Center.

Last reported at 2017-Jun-08 19:12 UTC. Time now 2017-Jun-26 15:26 UTC.
Position N 33°44' W 118°16'.
Warning: this ship's position is 17 days out of date.

Length 31 m; draft 3 m.

Type: Ship. MMSI: 367035570.

Date/timePositionNaut miles runAvg speedWind from/ knotsBaromVisibWave heightAir tempDewpointWater temp
2017-Jun-08 19:12N 33°44' W 118°16'0 0.0
2017-Jun-08 19:00N 33°44' W 118°16'7 2.6
2017-Jun-08 16:16N 33°44' W 118°07'1 2.6
2017-Jun-08 15:56N 33°44' W 118°08'5 3.6
2017-Jun-08 14:41N 33°43' W 118°13'2 4.3
2017-Jun-08 14:20N 33°43' W 118°15'1 0.1
2017-Jun-07 17:51N 33°44' W 118°16'0 0.0
2017-Jun-07 01:36N 33°44' W 118°16'0 0.1
2017-Jun-07 01:30N 33°44' W 118°16'1 1.8
2017-Jun-07 00:48N 33°43' W 118°15'1 2.5
2017-Jun-07 00:28N 33°42' W 118°15'3 3.7
2017-Jun-06 23:36N 33°41' W 118°19'1 3.6
2017-Jun-06 23:20N 33°41' W 118°20'1 1.6
2017-Jun-06 23:00N 33°41' W 118°21'0 0.6
2017-Jun-06 22:30N 33°42' W 118°21'1 1.4
2017-Jun-06 22:00N 33°42' W 118°22'1 1.2
2017-Jun-06 21:27N 33°42' W 118°23'0 0.5
2017-Jun-06 20:54N 33°42' W 118°23'0 0.2
2017-Jun-06 20:28N 33°42' W 118°23'0 0.1
2017-Jun-06 19:47N 33°42' W 118°23'1 1.8
2017-Jun-06 19:22N 33°42' W 118°22'1 1.7
2017-Jun-06 19:00N 33°41' W 118°22'0 0.3
2017-Jun-06 18:18N 33°42' W 118°22'1 1.2
2017-Jun-06 17:29N 33°42' W 118°21'2 3.8
2017-Jun-06 16:58N 33°42' W 118°19'2 3.8
2017-Jun-06 16:24N 33°42' W 118°16'2 0.2
2017-Jun-06 07:33N 33°44' W 118°16'0 0.0
2017-Jun-06 07:28N 33°44' W 118°16'0 0.0
2017-Jun-06 06:59N 33°44' W 118°16'0 0.0
2017-Jun-06 00:20N 33°44' W 118°16'0 0.0
2017-Jun-05 23:09N 33°44' W 118°16'0 0.0
2017-Jun-05 23:00N 33°44' W 118°16'0 0.0
2017-Jun-05 22:11N 33°44' W 118°16'0 0.0
2017-Jun-05 22:00N 33°44' W 118°16'0 0.0
2017-Jun-05 19:58N 33°44' W 118°16'0 0.0
2017-Jun-05 19:30N 33°44' W 118°16'0 0.0
2017-Jun-05 18:59N 33°44' W 118°16'0 0.0
2017-Jun-05 18:30N 33°44' W 118°16'0 0.0
2017-Jun-05 17:51N 33°44' W 118°16'0 0.0
2017-Jun-05 17:20N 33°44' W 118°16'0 0.0
2017-Jun-05 16:23N 33°44' W 118°16'0 0.0
2017-Jun-05 15:38N 33°44' W 118°16'0 0.0
2017-Jun-05 15:30N 33°44' W 118°16'0 0.0
2017-Jun-05 11:18N 33°44' W 118°16'0 0.0
2017-Jun-05 10:56N 33°44' W 118°16'0 0.0
2017-Jun-05 10:30N 33°44' W 118°16'0 0.0
2017-Jun-05 09:54N 33°44' W 118°16'0 0.0
2017-Jun-05 09:30N 33°44' W 118°16'0 0.0
2017-Jun-05 08:49N 33°44' W 118°16'0 0.0
2017-Jun-05 07:57N 33°44' W 118°16'0 0.0
2017-Jun-05 07:30N 33°44' W 118°16'0 0.0
2017-Jun-05 07:00N 33°44' W 118°16'0 0.0
2017-Jun-05 06:30N 33°44' W 118°16'0 0.0
2017-Jun-05 06:00N 33°44' W 118°16'0 0.1
2017-Jun-05 05:30N 33°44' W 118°16'0 0.1
2017-Jun-05 04:36N 33°44' W 118°16'0 0.0
2017-Jun-05 04:25N 33°44' W 118°16'0 0.0
2017-Jun-05 04:00N 33°44' W 118°16'0 0.0
2017-Jun-05 03:30N 33°44' W 118°16'0 0.0
2017-Jun-05 03:00N 33°44' W 118°16'0 0.0
2017-Jun-05 02:30N 33°44' W 118°16'0 0.6
2017-Jun-05 02:00N 33°44' W 118°16'1 2.5
2017-Jun-05 01:30N 33°43' W 118°15'2 2.6
2017-Jun-05 00:51N 33°42' W 118°17'1 4.0
2017-Jun-05 00:30N 33°41' W 118°18'2 3.9
2017-Jun-05 00:00N 33°41' W 118°21'1 2.4
2017-Jun-04 23:30N 33°41' W 118°22'0 0.7
2017-Jun-04 23:01N 33°42' W 118°23'1 1.7
2017-Jun-04 22:31N 33°41' W 118°23'1 1.3
2017-Jun-04 22:00N 33°42' W 118°23'0 0.5
2017-Jun-04 21:29N 33°42' W 118°23'0 0.6
2017-Jun-04 21:00N 33°42' W 118°23'0 0.7
2017-Jun-04 20:31N 33°42' W 118°23'0 0.5
2017-Jun-04 20:00N 33°42' W 118°23'0 0.3
2017-Jun-04 19:30N 33°42' W 118°23'0 0.4
2017-Jun-04 19:00N 33°42' W 118°23'0 0.2
2017-Jun-04 18:30N 33°42' W 118°23'0 0.4
2017-Jun-04 18:00N 33°42' W 118°23'1 1.1
2017-Jun-04 17:30N 33°42' W 118°24'1 1.5
2017-Jun-04 17:00N 33°42' W 118°23'0 0.4
2017-Jun-04 16:30N 33°42' W 118°23'0 0.6
2017-Jun-04 16:00N 33°42' W 118°23'1 1.6
2017-Jun-04 15:29N 33°42' W 118°24'0 0.5
2017-Jun-04 14:59N 33°42' W 118°24'2 1.6
2017-Jun-04 14:00N 33°42' W 118°22'1 1.3
2017-Jun-04 13:30N 33°42' W 118°23'1 2.0
2017-Jun-04 13:00N 33°42' W 118°21'0 0.9
2017-Jun-04 12:28N 33°42' W 118°22'1 2.4
2017-Jun-04 12:00N 33°41' W 118°23'1 1.7
2017-Jun-04 11:30N 33°42' W 118°24'1 2.2
2017-Jun-04 11:00N 33°42' W 118°23'1 2.1
2017-Jun-04 10:26N 33°42' W 118°21'0 0.9
2017-Jun-04 10:00N 33°42' W 118°21'1 2.5
2017-Jun-04 09:30N 33°41' W 118°22'1 2.3
2017-Jun-04 09:00N 33°41' W 118°24'1 1.5
2017-Jun-04 08:30N 33°42' W 118°23'1 2.2
2017-Jun-04 07:59N 33°42' W 118°22'1 2.1
2017-Jun-04 07:30N 33°42' W 118°21'1 1.9
2017-Jun-04 07:00N 33°42' W 118°22'1 2.5
2017-Jun-04 06:30N 33°41' W 118°23'1 1.0
2017-Jun-04 05:51N 33°42' W 118°24'1 2.2
2017-Jun-04 05:30N 33°42' W 118°23'1 1.9
2017-Jun-04 04:59N 33°42' W 118°22'1 2.1
2017-Jun-04 04:30N 33°42' W 118°21'1 1.9
2017-Jun-04 04:00N 33°42' W 118°21'1 2.6
2017-Jun-04 03:30N 33°41' W 118°23'1 1.4
2017-Jun-04 03:00N 33°42' W 118°24'1 1.9
2017-Jun-04 02:30N 33°42' W 118°23'0 0.9
2017-Jun-04 02:00N 33°42' W 118°22'1 1.1
2017-Jun-04 01:29N 33°42' W 118°23'0 0.5
2017-Jun-04 01:01N 33°42' W 118°23'0 0.4
2017-Jun-04 00:30N 33°42' W 118°23'0 0.1
2017-Jun-04 00:00N 33°42' W 118°23'0 0.7
2017-Jun-03 23:30N 33°41' W 118°23'1 1.1
2017-Jun-03 23:00N 33°41' W 118°24'0 0.9
2017-Jun-03 22:30N 33°42' W 118°23'0 0.9
2017-Jun-03 21:57N 33°42' W 118°23'0 0.6
2017-Jun-03 21:30N 33°42' W 118°23'0 0.3
2017-Jun-03 21:00N 33°42' W 118°23'0 0.6
2017-Jun-03 20:30N 33°42' W 118°22'0 0.7
2017-Jun-03 20:00N 33°42' W 118°22'0 0.5
2017-Jun-03 19:30N 33°42' W 118°22'0 0.9
2017-Jun-03 19:00N 33°42' W 118°22'1 1.7
2017-Jun-03 18:30N 33°41' W 118°23'1 1.1
2017-Jun-03 17:54N 33°42' W 118°23'0 1.1
2017-Jun-03 17:30N 33°42' W 118°23'0 0.4
2017-Jun-03 17:00N 33°42' W 118°23'2 3.1
2017-Jun-03 16:27N 33°42' W 118°21'2 3.2
2017-Jun-03 15:49N 33°42' W 118°19'1 3.4
2017-Jun-03 15:29N 33°42' W 118°17'2 3.3
2017-Jun-03 14:54N 33°42' W 118°15'1 3.2
2017-Jun-03 14:26N 33°44' W 118°16'0 0.1
2017-Jun-03 11:14N 33°44' W 118°16'0 0.0
2017-Jun-03 04:55N 33°44' W 118°16'0 0.0
2017-Jun-03 04:30N 33°44' W 118°16'0 0.0
2017-Jun-03 02:52N 33°44' W 118°16'0 0.0
2017-Jun-03 02:24N 33°44' W 118°16'0 0.0
2017-Jun-03 00:15N 33°44' W 118°16'0 0.0
2017-Jun-02 23:38N 33°44' W 118°16'0 0.0
2017-Jun-02 23:27N 33°44' W 118°16'0 0.0
2017-Jun-02 22:59N 33°44' W 118°16'0 0.0
2017-Jun-02 22:27N 33°44' W 118°16'0 0.0
2017-Jun-02 14:37N 33°44' W 118°16'0 0.0
2017-Jun-02 06:40N 33°44' W 118°16'0 0.0
2017-Jun-02 06:29N 33°44' W 118°16'0 0.0
2017-Jun-02 05:59N 33°44' W 118°16'0 0.0
2017-Jun-02 05:08N 33°44' W 118°16'0 0.0
2017-Jun-02 05:00N 33°44' W 118°16'0 0.0
2017-Jun-02 04:30N 33°44' W 118°16'0 0.0
2017-Jun-02 04:00N 33°44' W 118°16'0 0.0
2017-Jun-02 00:37N 33°44' W 118°16'0 0.1
2017-Jun-02 00:31N 33°44' W 118°16'0 0.6
2017-Jun-02 00:00N 33°44' W 118°16'1 2.5
2017-Jun-01 23:30N 33°43' W 118°15'2 3.3
2017-Jun-01 23:01N 33°42' W 118°17'2 4.4
2017-Jun-01 22:30N 33°42' W 118°19'2 4.2
2017-Jun-01 21:58N 33°43' W 118°22'1 2.4
2017-Jun-01 21:29N 33°43' W 118°23'1 1.4
2017-Jun-01 21:00N 33°43' W 118°23'1 0.8
2017-Jun-01 19:39N 33°43' W 118°21'0 0.2
2017-Jun-01 18:22N 33°43' W 118°21'2 2.7
2017-Jun-01 17:40N 33°43' W 118°23'1 0.9
2017-Jun-01 17:02N 33°42' W 118°23'0 1.3
2017-Jun-01 16:57N 33°42' W 118°23'1 0.0
2017-May-31 22:56N 33°42' W 118°22'2 0.8
2017-May-31 20:53N 33°42' W 118°20'1 2.7
2017-May-31 20:23N 33°42' W 118°22'0 0.5
2017-May-31 19:44N 33°42' W 118°21'0 1.6
2017-May-31 19:30N 33°42' W 118°21'1 2.3
2017-May-31 18:56N 33°42' W 118°22'0 0.7
2017-May-31 18:30N 33°42' W 118°23'0 0.3
2017-May-31 17:55N 33°42' W 118°23'0 0.4
2017-May-31 17:30N 33°42' W 118°23'2 3.3
2017-May-31 16:50N 33°42' W 118°20'2 3.5
2017-May-31 16:19N 33°42' W 118°18'1 3.5
2017-May-31 15:58N 33°42' W 118°17'3 3.7
2017-May-31 15:15N 33°43' W 118°14'6 2.6
2017-May-31 12:55N 33°45' W 118°07'0 0.0
2017-May-31 06:46N 33°45' W 118°07'0 0.0
2017-May-31 04:41N 33°45' W 118°07'0 0.0
2017-May-31 01:36N 33°45' W 118°07'0 0.0
2017-May-31 01:17N 33°45' W 118°07'0 0.0
2017-May-30 22:48N 33°45' W 118°07'0 0.0
2017-May-30 22:19N 33°45' W 118°07'0 0.0
2017-May-30 21:58N 33°45' W 118°07'0 0.0
2017-May-30 21:30N 33°45' W 118°07'0 0.0
2017-May-30 20:29N 33°45' W 118°07'0 0.0
2017-May-30 19:52N 33°45' W 118°07'0 0.0
2017-May-30 18:48N 33°45' W 118°07'0 0.0
2017-May-30 18:23N 33°45' W 118°07'1 1.8
2017-May-30 18:01N 33°45' W 118°07'4 5.0
2017-May-30 17:09N 33°44' W 118°12'1 5.3
2017-May-30 16:53N 33°43' W 118°14'2 0.2
2017-May-30 06:55N 33°44' W 118°16'0 0.0
2017-May-30 06:24N 33°44' W 118°16'0 0.0
2017-May-30 05:22N 33°44' W 118°16'0 0.0
2017-May-30 04:21N 33°44' W 118°16'0 0.0
2017-May-30 03:00N 33°44' W 118°16'0 0.0
2017-May-30 02:30N 33°44' W 118°16'0 0.0
2017-May-30 01:46N 33°44' W 118°16'0 0.0
2017-May-30 00:44N 33°44' W 118°16'0 0.0
2017-May-30 00:22N 33°44' W 118°16'0 0.0
2017-May-29 23:59N 33°44' W 118°16'0 0.0
2017-May-29 23:29N 33°44' W 118°16'0 0.0
2017-May-29 22:58N 33°44' W 118°16'0 0.0
2017-May-29 22:24N 33°44' W 118°16'0 0.0
2017-May-29 22:00N 33°44' W 118°16'0 0.0
2017-May-29 21:29N 33°44' W 118°16'0 0.0
2017-May-29 21:00N 33°44' W 118°16'0 0.0
2017-May-29 20:27N 33°44' W 118°16'0 0.0
2017-May-29 19:50N 33°44' W 118°16'0 0.0
2017-May-29 19:23N 33°44' W 118°16'  

Dump ship's entire track history